sensor_id;sensor_type;location;lat;lon;timestamp;P1;durP1;ratioP1;P2;durP2;ratioP2
30133;SDS011;16946;49.984;10.672;2022-10-15T00:00:11;4.60;;;3.80;;
30133;SDS011;16946;49.984;10.672;2022-10-15T00:00:42;4.00;;;3.20;;
30133;SDS011;16946;49.984;10.672;2022-10-15T00:01:15;4.17;;;3.00;;
30133;SDS011;16946;49.984;10.672;2022-10-15T00:01:46;4.30;;;3.90;;
30133;SDS011;16946;49.984;10.672;2022-10-15T00:02:17;4.20;;;3.40;;
30133;SDS011;16946;49.984;10.672;2022-10-15T00:02:48;5.60;;;3.40;;
30133;SDS011;16946;49.984;10.672;2022-10-15T00:03:19;3.47;;;3.17;;
30133;SDS011;16946;49.984;10.672;2022-10-15T00:03:49;4.83;;;3.60;;
30133;SDS011;16946;49.984;10.672;2022-10-15T00:04:20;3.80;;;3.40;;
30133;SDS011;16946;49.984;10.672;2022-10-15T00:04:51;3.47;;;3.17;;
30133;SDS011;16946;49.984;10.672;2022-10-15T00:05:21;4.77;;;4.00;;
30133;SDS011;16946;49.984;10.672;2022-10-15T00:05:52;4.67;;;3.30;;
30133;SDS011;16946;49.984;10.672;2022-10-15T00:06:22;4.33;;;3.60;;
30133;SDS011;16946;49.984;10.672;2022-10-15T00:06:53;4.80;;;3.07;;
30133;SDS011;16946;49.984;10.672;2022-10-15T00:07:24;4.20;;;3.20;;
30133;SDS011;16946;49.984;10.672;2022-10-15T00:07:54;4.63;;;3.15;;
30133;SDS011;16946;49.984;10.672;2022-10-15T00:08:25;5.23;;;3.30;;
30133;SDS011;16946;49.984;10.672;2022-10-15T00:08:56;5.93;;;3.30;;
30133;SDS011;16946;49.984;10.672;2022-10-15T00:09:26;4.00;;;3.20;;
30133;SDS011;16946;49.984;10.672;2022-10-15T00:09:57;4.00;;;3.47;;
30133;SDS011;16946;49.984;10.672;2022-10-15T00:10:27;5.20;;;3.57;;
30133;SDS011;16946;49.984;10.672;2022-10-15T00:11:02;4.10;;;3.47;;
30133;SDS011;16946;49.984;10.672;2022-10-15T00:11:38;3.85;;;3.53;;
30133;SDS011;16946;49.984;10.672;2022-10-15T00:12:09;4.72;;;3.40;;
30133;SDS011;16946;49.984;10.672;2022-10-15T00:12:40;4.67;;;3.40;;
30133;SDS011;16946;49.984;10.672;2022-10-15T00:13:11;3.85;;;3.30;;
30133;SDS011;16946;49.984;10.672;2022-10-15T00:13:41;4.50;;;3.47;;
30133;SDS011;16946;49.984;10.672;2022-10-15T00:14:12;5.17;;;3.67;;
30133;SDS011;16946;49.984;10.672;2022-10-15T00:14:43;4.53;;;3.87;;
30133;SDS011;16946;49.984;10.672;2022-10-15T00:15:13;3.40;;;3.10;;
30133;SDS011;16946;49.984;10.672;2022-10-15T00:15:44;4.27;;;3.53;;
30133;SDS011;16946;49.984;10.672;2022-10-15T00:16:16;3.67;;;3.37;;
30133;SDS011;16946;49.984;10.672;2022-10-15T00:16:48;3.65;;;3.35;;
30133;SDS011;16946;49.984;10.672;2022-10-15T00:17:19;3.90;;;3.50;;
30133;SDS011;16946;49.984;10.672;2022-10-15T00:17:49;3.37;;;3.07;;
30133;SDS011;16946;49.984;10.672;2022-10-15T00:18:20;4.40;;;3.97;;
30133;SDS011;16946;49.984;10.672;2022-10-15T00:18:51;5.13;;;4.00;;
30133;SDS011;16946;49.984;10.672;2022-10-15T00:19:24;4.65;;;3.35;;
30133;SDS011;16946;49.984;10.672;2022-10-15T00:19:54;8.33;;;4.30;;
30133;SDS011;16946;49.984;10.672;2022-10-15T00:20:25;5.13;;;3.70;;
30133;SDS011;16946;49.984;10.672;2022-10-15T00:20:55;7.17;;;4.30;;
30133;SDS011;16946;49.984;10.672;2022-10-15T00:21:26;5.50;;;4.17;;
30133;SDS011;16946;49.984;10.672;2022-10-15T00:21:57;7.90;;;4.60;;
30133;SDS011;16946;49.984;10.672;2022-10-15T00:22:27;4.63;;;4.00;;
30133;SDS011;16946;49.984;10.672;2022-10-15T00:22:58;5.60;;;3.93;;
30133;SDS011;16946;49.984;10.672;2022-10-15T00:23:29;7.17;;;3.70;;
30133;SDS011;16946;49.984;10.672;2022-10-15T00:24:00;5.90;;;3.97;;
30133;SDS011;16946;49.984;10.672;2022-10-15T00:24:30;5.77;;;3.83;;
30133;SDS011;16946;49.984;10.672;2022-10-15T00:25:01;5.07;;;3.53;;
30133;SDS011;16946;49.984;10.672;2022-10-15T00:25:32;4.38;;;3.78;;
30133;SDS011;16946;49.984;10.672;2022-10-15T00:26:03;5.60;;;3.83;;
30133;SDS011;16946;49.984;10.672;2022-10-15T00:26:38;5.65;;;3.40;;
30133;SDS011;16946;49.984;10.672;2022-10-15T00:27:09;5.20;;;3.33;;
30133;SDS011;16946;49.984;10.672;2022-10-15T00:27:39;4.43;;;4.03;;
30133;SDS011;16946;49.984;10.672;2022-10-15T00:28:10;5.67;;;4.30;;
30133;SDS011;16946;49.984;10.672;2022-10-15T00:28:41;4.33;;;3.60;;
30133;SDS011;16946;49.984;10.672;2022-10-15T00:29:11;5.33;;;3.60;;
30133;SDS011;16946;49.984;10.672;2022-10-15T00:29:42;5.43;;;3.97;;
30133;SDS011;16946;49.984;10.672;2022-10-15T00:30:12;4.43;;;4.03;;
30133;SDS011;16946;49.984;10.672;2022-10-15T00:30:43;3.77;;;3.37;;
30133;SDS011;16946;49.984;10.672;2022-10-15T00:31:14;5.17;;;3.60;;
30133;SDS011;16946;49.984;10.672;2022-10-15T00:31:46;4.25;;;3.85;;
30133;SDS011;16946;49.984;10.672;2022-10-15T00:32:17;6.20;;;4.50;;
30133;SDS011;16946;49.984;10.672;2022-10-15T00:32:47;6.60;;;4.17;;
30133;SDS011;16946;49.984;10.672;2022-10-15T00:33:18;5.47;;;4.37;;
30133;SDS011;16946;49.984;10.672;2022-10-15T00:33:49;5.17;;;4.30;;
30133;SDS011;16946;49.984;10.672;2022-10-15T00:34:20;5.22;;;4.80;;
30133;SDS011;16946;49.984;10.672;2022-10-15T00:34:51;6.17;;;4.83;;
30133;SDS011;16946;49.984;10.672;2022-10-15T00:35:22;5.90;;;5.10;;
30133;SDS011;16946;49.984;10.672;2022-10-15T00:36:06;5.03;;;4.30;;
30133;SDS011;16946;49.984;10.672;2022-10-15T00:36:38;5.60;;;4.93;;
30133;SDS011;16946;49.984;10.672;2022-10-15T00:37:08;5.77;;;5.20;;
30133;SDS011;16946;49.984;10.672;2022-10-15T00:37:39;5.23;;;4.73;;
30133;SDS011;16946;49.984;10.672;2022-10-15T00:38:10;4.93;;;4.50;;
30133;SDS011;16946;49.984;10.672;2022-10-15T00:38:40;4.43;;;3.93;;
30133;SDS011;16946;49.984;10.672;2022-10-15T00:39:11;6.13;;;4.28;;
30133;SDS011;16946;49.984;10.672;2022-10-15T00:39:42;7.20;;;4.90;;
30133;SDS011;16946;49.984;10.672;2022-10-15T00:40:13;6.20;;;4.60;;
30133;SDS011;16946;49.984;10.672;2022-10-15T00:40:44;5.13;;;4.60;;
30133;SDS011;16946;49.984;10.672;2022-10-15T00:41:16;5.10;;;4.70;;
30133;SDS011;16946;49.984;10.672;2022-10-15T00:41:47;6.40;;;4.47;;
30133;SDS011;16946;49.984;10.672;2022-10-15T00:42:17;5.77;;;4.50;;
30133;SDS011;16946;49.984;10.672;2022-10-15T00:42:48;5.40;;;4.90;;
30133;SDS011;16946;49.984;10.672;2022-10-15T00:44:52;5.65;;;4.50;;
30133;SDS011;16946;49.984;10.672;2022-10-15T00:45:24;4.95;;;4.55;;
30133;SDS011;16946;49.984;10.672;2022-10-15T00:45:55;5.47;;;5.07;;
30133;SDS011;16946;49.984;10.672;2022-10-15T00:46:39;5.73;;;5.13;;
30133;SDS011;16946;49.984;10.672;2022-10-15T00:47:15;5.55;;;4.82;;
30133;SDS011;16946;49.984;10.672;2022-10-15T00:47:47;5.57;;;4.97;;
30133;SDS011;16946;49.984;10.672;2022-10-15T00:48:18;8.07;;;5.10;;
30133;SDS011;16946;49.984;10.672;2022-10-15T00:48:50;7.07;;;5.43;;
30133;SDS011;16946;49.984;10.672;2022-10-15T00:49:38;6.25;;;5.22;;
30133;SDS011;16946;49.984;10.672;2022-10-15T00:50:14;5.82;;;5.28;;
30133;SDS011;16946;49.984;10.672;2022-10-15T00:50:47;5.07;;;4.68;;
30133;SDS011;16946;49.984;10.672;2022-10-15T00:51:18;5.90;;;5.40;;
30133;SDS011;16946;49.984;10.672;2022-10-15T00:52:00;8.18;;;5.55;;
30133;SDS011;16946;49.984;10.672;2022-10-15T00:52:40;5.40;;;4.90;;
30133;SDS011;16946;49.984;10.672;2022-10-15T00:53:20;5.93;;;5.30;;
30133;SDS011;16946;49.984;10.672;2022-10-15T00:53:51;6.20;;;5.60;;
30133;SDS011;16946;49.984;10.672;2022-10-15T00:54:22;6.97;;;5.43;;
30133;SDS011;16946;49.984;10.672;2022-10-15T00:55:07;5.65;;;5.03;;
30133;SDS011;16946;49.984;10.672;2022-10-15T00:55:47;6.38;;;5.78;;
30133;SDS011;16946;49.984;10.672;2022-10-15T00:56:20;7.20;;;5.65;;
30133;SDS011;16946;49.984;10.672;2022-10-15T00:56:53;6.18;;;5.57;;
30133;SDS011;16946;49.984;10.672;2022-10-15T00:57:24;6.30;;;5.63;;
30133;SDS011;16946;49.984;10.672;2022-10-15T00:57:56;7.27;;;6.00;;
30133;SDS011;16946;49.984;10.672;2022-10-15T00:58:29;9.20;;;5.68;;
30133;SDS011;16946;49.984;10.672;2022-10-15T00:59:01;7.05;;;6.43;;
30133;SDS011;16946;49.984;10.672;2022-10-15T00:59:40;7.25;;;6.32;;
30133;SDS011;16946;49.984;10.672;2022-10-15T01:00:16;6.88;;;6.18;;
30133;SDS011;16946;49.984;10.672;2022-10-15T01:00:47;7.83;;;5.27;;
30133;SDS011;16946;49.984;10.672;2022-10-15T01:01:17;7.50;;;5.93;;
30133;SDS011;16946;49.984;10.672;2022-10-15T01:01:48;5.87;;;5.37;;
30133;SDS011;16946;49.984;10.672;2022-10-15T01:02:19;6.63;;;5.73;;
30133;SDS011;16946;49.984;10.672;2022-10-15T01:02:49;6.33;;;5.73;;
30133;SDS011;16946;49.984;10.672;2022-10-15T01:03:20;6.30;;;5.63;;
30133;SDS011;16946;49.984;10.672;2022-10-15T01:03:54;6.90;;;6.30;;
30133;SDS011;16946;49.984;10.672;2022-10-15T01:04:25;6.85;;;5.95;;
30133;SDS011;16946;49.984;10.672;2022-10-15T01:04:56;6.63;;;6.03;;
30133;SDS011;16946;49.984;10.672;2022-10-15T01:05:27;7.37;;;5.90;;
30133;SDS011;16946;49.984;10.672;2022-10-15T01:05:58;6.90;;;5.90;;
30133;SDS011;16946;49.984;10.672;2022-10-15T01:06:28;8.20;;;6.27;;
30133;SDS011;16946;49.984;10.672;2022-10-15T01:06:59;7.47;;;6.77;;
30133;SDS011;16946;49.984;10.672;2022-10-15T01:07:30;7.33;;;6.20;;
30133;SDS011;16946;49.984;10.672;2022-10-15T01:08:00;6.47;;;5.80;;
30133;SDS011;16946;49.984;10.672;2022-10-15T01:08:31;6.80;;;6.10;;
30133;SDS011;16946;49.984;10.672;2022-10-15T01:09:02;6.80;;;6.17;;
30133;SDS011;16946;49.984;10.672;2022-10-15T01:09:33;6.25;;;5.57;;
30133;SDS011;16946;49.984;10.672;2022-10-15T01:10:04;6.77;;;5.80;;
30133;SDS011;16946;49.984;10.672;2022-10-15T01:10:42;6.93;;;5.63;;
30133;SDS011;16946;49.984;10.672;2022-10-15T01:12:16;6.80;;;6.10;;
30133;SDS011;16946;49.984;10.672;2022-10-15T01:13:47;6.30;;;5.70;;
30133;SDS011;16946;49.984;10.672;2022-10-15T01:15:58;7.13;;;6.17;;
30133;SDS011;16946;49.984;10.672;2022-10-15T01:16:37;6.68;;;6.00;;
30133;SDS011;16946;49.984;10.672;2022-10-15T01:17:53;6.85;;;6.15;;
30133;SDS011;16946;49.984;10.672;2022-10-15T01:21:15;6.75;;;5.10;;
30133;SDS011;16946;49.984;10.672;2022-10-15T01:22:07;5.85;;;5.25;;
30133;SDS011;16946;49.984;10.672;2022-10-15T01:23:40;6.57;;;5.97;;
30133;SDS011;16946;49.984;10.672;2022-10-15T01:24:53;8.25;;;6.75;;
30133;SDS011;16946;49.984;10.672;2022-10-15T01:27:58;7.43;;;6.18;;
30133;SDS011;16946;49.984;10.672;2022-10-15T01:29:50;8.90;;;6.72;;
30133;SDS011;16946;49.984;10.672;2022-10-15T01:30:36;8.55;;;6.30;;
30133;SDS011;16946;49.984;10.672;2022-10-15T01:31:25;7.10;;;6.40;;
30133;SDS011;16946;49.984;10.672;2022-10-15T01:32:19;7.53;;;6.18;;
30133;SDS011;16946;49.984;10.672;2022-10-15T01:32:56;8.02;;;7.22;;
30133;SDS011;16946;49.984;10.672;2022-10-15T01:34:01;7.25;;;5.68;;
30133;SDS011;16946;49.984;10.672;2022-10-15T01:36:33;6.72;;;6.05;;
30133;SDS011;16946;49.984;10.672;2022-10-15T01:37:58;7.57;;;6.45;;
30133;SDS011;16946;49.984;10.672;2022-10-15T01:39:00;12.15;;;7.47;;
30133;SDS011;16946;49.984;10.672;2022-10-15T01:39:56;7.50;;;6.70;;
30133;SDS011;16946;49.984;10.672;2022-10-15T01:40:37;8.75;;;7.85;;
30133;SDS011;16946;49.984;10.672;2022-10-15T01:41:21;8.15;;;6.28;;
30133;SDS011;16946;49.984;10.672;2022-10-15T01:42:12;7.93;;;7.13;;
30133;SDS011;16946;49.984;10.672;2022-10-15T01:42:58;8.38;;;6.57;;
30133;SDS011;16946;49.984;10.672;2022-10-15T01:43:38;7.65;;;6.95;;
30133;SDS011;16946;49.984;10.672;2022-10-15T01:44:30;8.13;;;6.97;;
30133;SDS011;16946;49.984;10.672;2022-10-15T01:45:09;8.45;;;7.63;;
30133;SDS011;16946;49.984;10.672;2022-10-15T01:45:46;8.57;;;6.70;;
30133;SDS011;16946;49.984;10.672;2022-10-15T01:46:29;7.88;;;7.07;;
30133;SDS011;16946;49.984;10.672;2022-10-15T01:47:26;7.75;;;6.97;;
30133;SDS011;16946;49.984;10.672;2022-10-15T01:48:02;8.25;;;7.05;;
30133;SDS011;16946;49.984;10.672;2022-10-15T01:48:36;8.32;;;7.00;;
30133;SDS011;16946;49.984;10.672;2022-10-15T01:49:07;7.80;;;6.82;;
30133;SDS011;16946;49.984;10.672;2022-10-15T01:49:41;7.88;;;7.13;;
30133;SDS011;16946;49.984;10.672;2022-10-15T01:50:14;8.60;;;7.80;;
30133;SDS011;16946;49.984;10.672;2022-10-15T01:50:48;8.88;;;7.88;;
30133;SDS011;16946;49.984;10.672;2022-10-15T01:51:22;8.07;;;7.28;;
30133;SDS011;16946;49.984;10.672;2022-10-15T01:51:54;8.00;;;6.50;;
30133;SDS011;16946;49.984;10.672;2022-10-15T01:52:27;9.00;;;7.03;;
30133;SDS011;16946;49.984;10.672;2022-10-15T01:53:01;8.13;;;7.43;;
30133;SDS011;16946;49.984;10.672;2022-10-15T01:53:34;8.05;;;6.93;;
30133;SDS011;16946;49.984;10.672;2022-10-15T01:54:07;8.55;;;6.65;;
30133;SDS011;16946;49.984;10.672;2022-10-15T01:54:41;8.13;;;6.93;;
30133;SDS011;16946;49.984;10.672;2022-10-15T01:55:14;9.82;;;7.28;;
30133;SDS011;16946;49.984;10.672;2022-10-15T01:55:47;7.22;;;6.50;;
30133;SDS011;16946;49.984;10.672;2022-10-15T01:56:19;6.85;;;6.25;;
30133;SDS011;16946;49.984;10.672;2022-10-15T01:56:52;7.20;;;6.50;;
30133;SDS011;16946;49.984;10.672;2022-10-15T01:57:24;8.60;;;6.63;;
30133;SDS011;16946;49.984;10.672;2022-10-15T01:57:57;8.90;;;6.70;;
30133;SDS011;16946;49.984;10.672;2022-10-15T01:58:29;8.20;;;7.40;;
30133;SDS011;16946;49.984;10.672;2022-10-15T01:59:01;10.65;;;7.03;;
30133;SDS011;16946;49.984;10.672;2022-10-15T01:59:33;9.93;;;6.32;;
30133;SDS011;16946;49.984;10.672;2022-10-15T02:00:05;10.15;;;7.97;;
30133;SDS011;16946;49.984;10.672;2022-10-15T02:00:36;9.25;;;6.63;;
30133;SDS011;16946;49.984;10.672;2022-10-15T02:01:08;8.43;;;7.63;;
30133;SDS011;16946;49.984;10.672;2022-10-15T02:01:41;8.97;;;7.53;;
30133;SDS011;16946;49.984;10.672;2022-10-15T02:02:12;8.52;;;7.55;;
30133;SDS011;16946;49.984;10.672;2022-10-15T02:02:43;7.83;;;7.13;;
30133;SDS011;16946;49.984;10.672;2022-10-15T02:03:13;7.47;;;6.77;;
30133;SDS011;16946;49.984;10.672;2022-10-15T02:03:48;12.03;;;6.60;;
30133;SDS011;16946;49.984;10.672;2022-10-15T02:04:21;7.57;;;6.70;;
30133;SDS011;16946;49.984;10.672;2022-10-15T02:04:53;7.97;;;6.28;;
30133;SDS011;16946;49.984;10.672;2022-10-15T02:05:25;7.93;;;6.63;;
30133;SDS011;16946;49.984;10.672;2022-10-15T02:06:03;7.57;;;6.88;;
30133;SDS011;16946;49.984;10.672;2022-10-15T02:06:40;8.05;;;7.20;;
30133;SDS011;16946;49.984;10.672;2022-10-15T02:08:45;7.22;;;6.50;;
30133;SDS011;16946;49.984;10.672;2022-10-15T02:09:37;8.73;;;6.57;;
30133;SDS011;16946;49.984;10.672;2022-10-15T02:10:38;8.07;;;6.72;;
30133;SDS011;16946;49.984;10.672;2022-10-15T02:11:18;8.02;;;7.25;;
30133;SDS011;16946;49.984;10.672;2022-10-15T02:12:46;7.47;;;6.68;;
30133;SDS011;16946;49.984;10.672;2022-10-15T02:13:23;7.75;;;7.05;;
30133;SDS011;16946;49.984;10.672;2022-10-15T02:14:04;8.52;;;7.68;;
30133;SDS011;16946;49.984;10.672;2022-10-15T02:17:12;8.88;;;7.22;;
30133;SDS011;16946;49.984;10.672;2022-10-15T02:17:45;8.93;;;8.02;;
30133;SDS011;16946;49.984;10.672;2022-10-15T02:18:37;8.38;;;7.55;;
30133;SDS011;16946;49.984;10.672;2022-10-15T02:19:27;8.93;;;8.02;;
30133;SDS011;16946;49.984;10.672;2022-10-15T02:20:13;8.35;;;7.45;;
30133;SDS011;16946;49.984;10.672;2022-10-15T02:20:50;8.93;;;8.13;;
30133;SDS011;16946;49.984;10.672;2022-10-15T02:21:36;10.10;;;8.18;;
30133;SDS011;16946;49.984;10.672;2022-10-15T02:22:16;9.80;;;8.15;;
30133;SDS011;16946;49.984;10.672;2022-10-15T02:22:54;9.65;;;8.57;;
30133;SDS011;16946;49.984;10.672;2022-10-15T02:24:24;11.25;;;9.18;;
30133;SDS011;16946;49.984;10.672;2022-10-15T02:24:43;11.48;;;9.30;;
30133;SDS011;16946;49.984;10.672;2022-10-15T02:25:22;11.43;;;9.68;;
30133;SDS011;16946;49.984;10.672;2022-10-15T02:25:54;10.05;;;9.00;;
30133;SDS011;16946;49.984;10.672;2022-10-15T02:26:26;11.55;;;9.77;;
30133;SDS011;16946;49.984;10.672;2022-10-15T02:26:59;10.85;;;9.75;;
30133;SDS011;16946;49.984;10.672;2022-10-15T02:27:31;10.40;;;9.30;;
30133;SDS011;16946;49.984;10.672;2022-10-15T02:28:03;12.70;;;9.60;;
30133;SDS011;16946;49.984;10.672;2022-10-15T02:28:35;10.90;;;8.75;;
30133;SDS011;16946;49.984;10.672;2022-10-15T02:29:12;11.85;;;8.70;;
30133;SDS011;16946;49.984;10.672;2022-10-15T02:29:48;9.88;;;8.98;;
30133;SDS011;16946;49.984;10.672;2022-10-15T02:30:20;10.98;;;8.38;;
30133;SDS011;16946;49.984;10.672;2022-10-15T02:30:51;10.05;;;9.05;;
30133;SDS011;16946;49.984;10.672;2022-10-15T02:31:25;11.15;;;9.88;;
30133;SDS011;16946;49.984;10.672;2022-10-15T02:31:59;9.63;;;8.73;;
30133;SDS011;16946;49.984;10.672;2022-10-15T02:32:31;11.73;;;9.55;;
30133;SDS011;16946;49.984;10.672;2022-10-15T02:33:02;12.85;;;9.88;;
30133;SDS011;16946;49.984;10.672;2022-10-15T02:33:33;10.05;;;8.77;;
30133;SDS011;16946;49.984;10.672;2022-10-15T02:34:06;10.98;;;9.73;;
30133;SDS011;16946;49.984;10.672;2022-10-15T02:34:40;10.27;;;9.38;;
30133;SDS011;16946;49.984;10.672;2022-10-15T02:35:13;11.18;;;10.05;;
30133;SDS011;16946;49.984;10.672;2022-10-15T02:35:44;13.57;;;10.02;;
30133;SDS011;16946;49.984;10.672;2022-10-15T02:36:17;8.10;;;7.30;;
30133;SDS011;16946;49.984;10.672;2022-10-15T02:36:48;12.07;;;9.25;;
30133;SDS011;16946;49.984;10.672;2022-10-15T02:37:20;8.90;;;8.02;;
30133;SDS011;16946;49.984;10.672;2022-10-15T02:37:53;9.38;;;8.55;;
30133;SDS011;16946;49.984;10.672;2022-10-15T02:38:28;9.68;;;8.70;;
30133;SDS011;16946;49.984;10.672;2022-10-15T02:39:01;8.60;;;7.68;;
30133;SDS011;16946;49.984;10.672;2022-10-15T02:39:34;10.00;;;8.23;;
30133;SDS011;16946;49.984;10.672;2022-10-15T02:40:04;9.80;;;8.90;;
30133;SDS011;16946;49.984;10.672;2022-10-15T02:40:35;9.23;;;8.27;;
30133;SDS011;16946;49.984;10.672;2022-10-15T02:41:07;8.10;;;7.30;;
30133;SDS011;16946;49.984;10.672;2022-10-15T02:41:38;8.23;;;7.43;;
30133;SDS011;16946;49.984;10.672;2022-10-15T02:42:09;11.27;;;8.48;;
30133;SDS011;16946;49.984;10.672;2022-10-15T02:42:40;8.97;;;8.17;;
30133;SDS011;16946;49.984;10.672;2022-10-15T02:43:12;9.23;;;8.00;;
30133;SDS011;16946;49.984;10.672;2022-10-15T02:43:44;9.50;;;8.60;;
30133;SDS011;16946;49.984;10.672;2022-10-15T02:44:16;9.13;;;8.18;;
30133;SDS011;16946;49.984;10.672;2022-10-15T02:44:46;9.00;;;8.03;;
30133;SDS011;16946;49.984;10.672;2022-10-15T02:45:17;10.63;;;9.60;;
30133;SDS011;16946;49.984;10.672;2022-10-15T02:45:49;9.27;;;8.38;;
30133;SDS011;16946;49.984;10.672;2022-10-15T02:46:19;10.23;;;9.17;;
30133;SDS011;16946;49.984;10.672;2022-10-15T02:46:50;8.97;;;8.00;;
30133;SDS011;16946;49.984;10.672;2022-10-15T02:47:21;10.13;;;9.10;;
30133;SDS011;16946;49.984;10.672;2022-10-15T02:47:51;11.57;;;10.07;;
30133;SDS011;16946;49.984;10.672;2022-10-15T02:48:22;10.10;;;9.20;;
30133;SDS011;16946;49.984;10.672;2022-10-15T02:48:53;11.02;;;9.85;;
30133;SDS011;16946;49.984;10.672;2022-10-15T02:49:24;12.90;;;8.70;;
30133;SDS011;16946;49.984;10.672;2022-10-15T02:49:54;10.57;;;9.03;;
30133;SDS011;16946;49.984;10.672;2022-10-15T02:50:25;10.90;;;9.37;;
30133;SDS011;16946;49.984;10.672;2022-10-15T02:50:55;10.47;;;9.50;;
30133;SDS011;16946;49.984;10.672;2022-10-15T02:51:26;9.43;;;8.63;;
30133;SDS011;16946;49.984;10.672;2022-10-15T02:52:00;13.48;;;10.05;;
30133;SDS011;16946;49.984;10.672;2022-10-15T02:52:30;9.60;;;8.70;;
30133;SDS011;16946;49.984;10.672;2022-10-15T02:53:01;10.77;;;9.77;;
30133;SDS011;16946;49.984;10.672;2022-10-15T02:53:32;10.73;;;9.63;;
30133;SDS011;16946;49.984;10.672;2022-10-15T02:54:04;9.27;;;8.40;;
30133;SDS011;16946;49.984;10.672;2022-10-15T02:54:36;10.98;;;9.65;;
30133;SDS011;16946;49.984;10.672;2022-10-15T02:55:06;10.90;;;9.00;;
30133;SDS011;16946;49.984;10.672;2022-10-15T02:55:37;11.48;;;10.38;;
30133;SDS011;16946;49.984;10.672;2022-10-15T02:56:08;11.67;;;10.57;;
30133;SDS011;16946;49.984;10.672;2022-10-15T02:56:38;10.40;;;9.37;;
30133;SDS011;16946;49.984;10.672;2022-10-15T02:57:09;11.43;;;10.10;;
30133;SDS011;16946;49.984;10.672;2022-10-15T02:57:39;11.33;;;10.07;;
30133;SDS011;16946;49.984;10.672;2022-10-15T02:58:10;12.33;;;11.07;;
30133;SDS011;16946;49.984;10.672;2022-10-15T02:58:40;10.87;;;9.73;;
30133;SDS011;16946;49.984;10.672;2022-10-15T02:59:11;12.13;;;10.83;;
30133;SDS011;16946;49.984;10.672;2022-10-15T02:59:41;11.47;;;10.37;;
30133;SDS011;16946;49.984;10.672;2022-10-15T03:00:12;10.90;;;9.90;;
30133;SDS011;16946;49.984;10.672;2022-10-15T03:00:43;10.30;;;9.30;;
30133;SDS011;16946;49.984;10.672;2022-10-15T03:01:13;11.67;;;10.57;;
30133;SDS011;16946;49.984;10.672;2022-10-15T03:01:44;9.70;;;8.70;;
30133;SDS011;16946;49.984;10.672;2022-10-15T03:02:14;14.77;;;11.53;;
30133;SDS011;16946;49.984;10.672;2022-10-15T03:02:45;13.30;;;12.03;;
30133;SDS011;16946;49.984;10.672;2022-10-15T03:03:16;10.33;;;9.33;;
30133;SDS011;16946;49.984;10.672;2022-10-15T03:03:46;12.50;;;11.20;;
30133;SDS011;16946;49.984;10.672;2022-10-15T03:04:17;11.13;;;9.83;;
30133;SDS011;16946;49.984;10.672;2022-10-15T03:04:48;11.90;;;10.67;;
30133;SDS011;16946;49.984;10.672;2022-10-15T03:05:18;11.00;;;9.83;;
30133;SDS011;16946;49.984;10.672;2022-10-15T03:05:49;13.97;;;10.23;;
30133;SDS011;16946;49.984;10.672;2022-10-15T03:06:19;11.87;;;10.00;;
30133;SDS011;16946;49.984;10.672;2022-10-15T03:06:50;12.93;;;11.17;;
30133;SDS011;16946;49.984;10.672;2022-10-15T03:07:20;11.80;;;10.60;;
30133;SDS011;16946;49.984;10.672;2022-10-15T03:07:51;11.03;;;9.93;;
30133;SDS011;16946;49.984;10.672;2022-10-15T03:08:21;11.63;;;9.73;;
30133;SDS011;16946;49.984;10.672;2022-10-15T03:08:52;10.67;;;9.57;;
30133;SDS011;16946;49.984;10.672;2022-10-15T03:09:22;11.77;;;10.17;;
30133;SDS011;16946;49.984;10.672;2022-10-15T03:09:53;12.90;;;11.17;;
30133;SDS011;16946;49.984;10.672;2022-10-15T03:10:23;12.87;;;11.67;;
30133;SDS011;16946;49.984;10.672;2022-10-15T03:10:54;12.40;;;10.50;;
30133;SDS011;16946;49.984;10.672;2022-10-15T03:11:24;14.40;;;12.03;;
30133;SDS011;16946;49.984;10.672;2022-10-15T03:11:55;11.27;;;10.20;;
30133;SDS011;16946;49.984;10.672;2022-10-15T03:12:26;11.60;;;10.40;;
30133;SDS011;16946;49.984;10.672;2022-10-15T03:13:00;10.97;;;9.63;;
30133;SDS011;16946;49.984;10.672;2022-10-15T03:13:35;11.68;;;9.55;;
30133;SDS011;16946;49.984;10.672;2022-10-15T03:14:07;13.30;;;10.70;;
30133;SDS011;16946;49.984;10.672;2022-10-15T03:14:38;10.83;;;9.73;;
30133;SDS011;16946;49.984;10.672;2022-10-15T03:15:08;11.13;;;9.93;;
30133;SDS011;16946;49.984;10.672;2022-10-15T03:15:39;11.13;;;9.17;;
30133;SDS011;16946;49.984;10.672;2022-10-15T03:16:10;11.83;;;10.63;;
30133;SDS011;16946;49.984;10.672;2022-10-15T03:16:41;11.27;;;10.18;;
30133;SDS011;16946;49.984;10.672;2022-10-15T03:17:12;10.43;;;9.23;;
30133;SDS011;16946;49.984;10.672;2022-10-15T03:17:42;11.27;;;10.10;;
30133;SDS011;16946;49.984;10.672;2022-10-15T03:18:13;11.63;;;10.13;;
30133;SDS011;16946;49.984;10.672;2022-10-15T03:18:43;11.37;;;10.27;;
30133;SDS011;16946;49.984;10.672;2022-10-15T03:19:14;11.03;;;9.83;;
30133;SDS011;16946;49.984;10.672;2022-10-15T03:19:44;10.07;;;9.07;;
30133;SDS011;16946;49.984;10.672;2022-10-15T03:20:15;9.83;;;8.87;;
30133;SDS011;16946;49.984;10.672;2022-10-15T03:20:52;10.90;;;9.43;;
30133;SDS011;16946;49.984;10.672;2022-10-15T03:21:25;10.80;;;9.60;;
30133;SDS011;16946;49.984;10.672;2022-10-15T03:21:59;11.00;;;9.52;;
30133;SDS011;16946;49.984;10.672;2022-10-15T03:22:30;9.97;;;8.80;;
30133;SDS011;16946;49.984;10.672;2022-10-15T03:23:00;10.50;;;9.00;;
30133;SDS011;16946;49.984;10.672;2022-10-15T03:23:31;9.43;;;8.53;;
30133;SDS011;16946;49.984;10.672;2022-10-15T03:24:02;9.30;;;8.10;;
30133;SDS011;16946;49.984;10.672;2022-10-15T03:24:32;9.07;;;8.20;;
30133;SDS011;16946;49.984;10.672;2022-10-15T03:25:03;9.23;;;7.60;;
30133;SDS011;16946;49.984;10.672;2022-10-15T03:25:34;8.00;;;7.28;;
30133;SDS011;16946;49.984;10.672;2022-10-15T03:26:04;7.67;;;6.97;;
30133;SDS011;16946;49.984;10.672;2022-10-15T03:26:35;8.43;;;7.63;;
30133;SDS011;16946;49.984;10.672;2022-10-15T03:27:06;10.43;;;9.43;;
30133;SDS011;16946;49.984;10.672;2022-10-15T03:27:36;13.57;;;11.57;;
30133;SDS011;16946;49.984;10.672;2022-10-15T03:28:07;11.30;;;9.57;;
30133;SDS011;16946;49.984;10.672;2022-10-15T03:28:38;11.03;;;9.10;;
30133;SDS011;16946;49.984;10.672;2022-10-15T03:29:08;11.37;;;10.17;;
30133;SDS011;16946;49.984;10.672;2022-10-15T03:29:38;10.50;;;9.20;;
30133;SDS011;16946;49.984;10.672;2022-10-15T03:30:09;9.77;;;8.77;;
30133;SDS011;16946;49.984;10.672;2022-10-15T03:30:40;11.80;;;10.67;;
30133;SDS011;16946;49.984;10.672;2022-10-15T03:31:12;12.38;;;10.75;;
30133;SDS011;16946;49.984;10.672;2022-10-15T03:31:43;11.48;;;10.05;;
30133;SDS011;16946;49.984;10.672;2022-10-15T03:32:13;10.87;;;9.77;;
30133;SDS011;16946;49.984;10.672;2022-10-15T03:32:44;11.60;;;9.20;;
30133;SDS011;16946;49.984;10.672;2022-10-15T03:33:15;10.35;;;8.90;;
30133;SDS011;16946;49.984;10.672;2022-10-15T03:33:46;10.37;;;9.03;;
30133;SDS011;16946;49.984;10.672;2022-10-15T03:34:16;10.10;;;9.03;;
30133;SDS011;16946;49.984;10.672;2022-10-15T03:34:47;14.30;;;12.20;;
30133;SDS011;16946;49.984;10.672;2022-10-15T03:35:17;15.87;;;13.00;;
30133;SDS011;16946;49.984;10.672;2022-10-15T03:35:48;12.20;;;9.43;;
30133;SDS011;16946;49.984;10.672;2022-10-15T03:36:18;11.10;;;10.00;;
30133;SDS011;16946;49.984;10.672;2022-10-15T03:36:49;9.10;;;8.27;;
30133;SDS011;16946;49.984;10.672;2022-10-15T03:37:20;11.77;;;9.80;;
30133;SDS011;16946;49.984;10.672;2022-10-15T03:37:50;9.03;;;8.13;;
30133;SDS011;16946;49.984;10.672;2022-10-15T03:38:21;8.90;;;8.00;;